Terminal Aerodrome Forecast
Issued by NWS

Home | Current Version | Previous Version | Text Only | Print | Product List | Glossary On
Versions: 1 2 3 4 5 6 7 8 9 10 11 12
000
FTUS45 KABQ 052323
TAFTCC
TAF
KTCC 052323Z 0600/0624 20011KT P6SM SKC
     FM061500 20012G21KT P6SM FEW150
     FM061900 20020G30KT P6SM FEW110=

USA.gov is the U.S. government's official web portal to all federal, state and local government web resources and services.